Time;durP1;ratioP1;P1;durP2;ratioP2;P2;SDS_P1;SDS_P2;PMS_P1;PMS_P2;Temp;Humidity;BMP_temperature;BMP_pressure;BME280_temperature;BME280_humidity;BME280_pressure;Samples;Min_cycle;Max_cycle;Signal;HPM_P1;HPM_P2
2022/01/23 00:02:08;;;;;;;29.25;14.57;;;;;;;;;;5119329;27;20130;-77
2022/01/23 00:04:35;;;;;;;28.55;13.70;;;;;;;;;;5123408;27;20620;-77
2022/01/23 00:07:04;;;;;;;29.13;14.02;;;;;;;;;;5123531;27;20135;-76
2022/01/23 00:09:31;;;;;;;27.52;14.30;;;;;;;;;;5121897;27;20075;-77
2022/01/23 00:12:02;;;;;;;29.73;14.48;;;;;;;;;;5126567;27;20104;-77
2022/01/23 00:17:20;;;;;;;29.87;14.50;;;;;;;;;;5124137;27;20058;-78
2022/01/23 00:19:48;;;;;;;32.03;15.45;;;;;;;;;;5126354;27;20043;-77
2022/01/23 00:22:14;;;;;;;33.67;16.02;;;;;;;;;;5125406;27;20122;-77
2022/01/23 00:30:29;;;;;;;31.17;15.20;;;;;;;;;;5123395;27;20124;-77
2022/01/23 00:32:57;;;;;;;33.50;15.70;;;;;;;;;;5120644;27;20058;-77
2022/01/23 00:35:24;;;;;;;33.15;14.98;;;;;;;;;;5120771;27;20042;-77
2022/01/23 00:37:51;;;;;;;34.75;15.27;;;;;;;;;;5120744;27;20093;-78
2022/01/23 00:40:18;;;;;;;37.35;15.07;;;;;;;;;;5120380;27;20138;-78
2022/01/23 00:42:45;;;;;;;36.72;15.57;;;;;;;;;;5123696;27;20043;-77
2022/01/23 00:45:27;;;;;;;31.55;15.13;;;;;;;;;;5124632;27;20075;-77
2022/01/23 00:47:58;;;;;;;32.08;15.90;;;;;;;;;;5123559;27;20047;-77
2022/01/23 00:50:25;;;;;;;31.80;15.52;;;;;;;;;;5121494;27;20051;-77
2022/01/23 00:52:51;;;;;;;34.05;16.33;;;;;;;;;;5123134;27;20067;-77
2022/01/23 00:55:18;;;;;;;29.75;14.35;;;;;;;;;;5125023;27;20555;-77
2022/01/23 00:57:44;;;;;;;31.52;14.70;;;;;;;;;;5122309;27;20135;-78
2022/01/23 01:00:14;;;;;;;30.33;13.90;;;;;;;;;;5126251;27;20134;-77
2022/01/23 01:02:40;;;;;;;30.35;13.63;;;;;;;;;;5123619;27;20067;-77
2022/01/23 01:05:08;;;;;;;36.08;14.18;;;;;;;;;;5121698;27;20083;-77
2022/01/23 01:07:34;;;;;;;29.20;13.48;;;;;;;;;;5122161;27;20093;-77
2022/01/23 01:10:07;;;;;;;34.30;15.15;;;;;;;;;;5124604;27;20078;-77
2022/01/23 01:12:39;;;;;;;33.22;15.35;;;;;;;;;;5127511;27;20058;-77
2022/01/23 01:15:32;;;;;;;33.65;15.98;;;;;;;;;;5124228;27;20039;-77
2022/01/23 01:31:50;;;;;;;25.83;12.82;;;;;;;;;;5126794;27;20041;-77
2022/01/23 01:34:23;;;;;;;34.08;13.98;;;;;;;;;;5124986;27;20070;-77
2022/01/23 01:36:52;;;;;;;28.45;13.20;;;;;;;;;;5123500;27;20043;-77
2022/01/23 01:39:22;;;;;;;26.48;13.20;;;;;;;;;;5122793;27;20055;-77
2022/01/23 01:41:50;;;;;;;27.42;12.55;;;;;;;;;;5122131;27;20143;-77
2022/01/23 01:44:17;;;;;;;26.77;12.90;;;;;;;;;;5122163;27;20039;-77
2022/01/23 01:46:44;;;;;;;25.92;11.95;;;;;;;;;;5121456;27;20542;-77
2022/01/23 01:49:12;;;;;;;29.65;13.38;;;;;;;;;;5120678;27;20170;-77
2022/01/23 01:51:40;;;;;;;23.83;12.10;;;;;;;;;;5121387;27;20435;-77
2022/01/23 01:54:12;;;;;;;23.45;10.88;;;;;;;;;;5116639;27;20055;-77
2022/01/23 01:56:49;;;;;;;25.13;12.05;;;;;;;;;;5119619;27;20043;-77
2022/01/23 01:59:44;;;;;;;24.77;12.48;;;;;;;;;;5119519;27;20516;-77
2022/01/23 02:10:23;;;;;;;26.80;10.88;;;;;;;;;;5119371;28;20053;-77
2022/01/23 02:13:06;;;;;;;22.65;11.07;;;;;;;;;;5120036;27;20776;-77
2022/01/23 02:51:58;;;;;;;25.58;11.25;;;;;;;;;;5121390;27;20414;-77
2022/01/23 02:54:42;;;;;;;26.48;11.80;;;;;;;;;;5123795;27;20046;-77
2022/01/23 02:57:10;;;;;;;22.38;10.55;;;;;;;;;;5125584;27;20063;-77
2022/01/23 02:59:38;;;;;;;26.58;10.90;;;;;;;;;;5122358;27;20059;-78
2022/01/23 03:02:12;;;;;;;22.23;10.93;;;;;;;;;;5124282;27;20043;-78
2022/01/23 03:04:47;;;;;;;23.85;11.70;;;;;;;;;;5128643;27;20120;-78
2022/01/23 03:07:31;;;;;;;20.58;10.45;;;;;;;;;;5124239;27;20054;-77
2022/01/23 03:10:05;;;;;;;28.02;12.05;;;;;;;;;;5121374;27;20487;-77
2022/01/23 03:15:23;;;;;;;21.30;10.90;;;;;;;;;;5123709;27;20156;-78
2022/01/23 03:26:17;;;;;;;19.38;10.25;;;;;;;;;;5119501;27;20093;-77
2022/01/23 03:29:04;;;;;;;22.13;10.32;;;;;;;;;;5121169;27;20043;-77
2022/01/23 03:31:33;;;;;;;18.75;10.10;;;;;;;;;;5121417;27;20055;-77
2022/01/23 03:34:00;;;;;;;20.77;10.07;;;;;;;;;;5128719;27;20070;-78
2022/01/23 03:36:27;;;;;;;20.48;10.50;;;;;;;;;;5124935;27;20047;-77
2022/01/23 03:38:53;;;;;;;19.98;9.20;;;;;;;;;;5120523;27;20127;-78
2022/01/23 03:41:21;;;;;;;21.00;10.55;;;;;;;;;;5122836;27;20158;-78
2022/01/23 03:43:48;;;;;;;21.83;9.60;;;;;;;;;;5120848;27;20169;-77
2022/01/23 03:46:34;;;;;;;20.77;11.10;;;;;;;;;;5121628;27;20138;-77
2022/01/23 03:51:44;;;;;;;24.80;10.30;;;;;;;;;;5122350;27;20124;-77
2022/01/23 03:54:11;;;;;;;22.77;10.80;;;;;;;;;;5126229;27;20130;-77
2022/01/23 03:56:39;;;;;;;22.90;10.50;;;;;;;;;;5126832;27;20462;-77
2022/01/23 03:59:05;;;;;;;20.10;10.00;;;;;;;;;;5121332;27;20075;-77
2022/01/23 04:01:32;;;;;;;20.88;11.23;;;;;;;;;;5120882;27;20071;-78
2022/01/23 04:04:02;;;;;;;19.77;9.85;;;;;;;;;;5126256;27;20565;-78
2022/01/23 04:06:28;;;;;;;21.13;10.27;;;;;;;;;;5123034;27;20039;-78
2022/01/23 04:08:55;;;;;;;22.30;10.32;;;;;;;;;;5125688;27;20055;-78
2022/01/23 04:11:22;;;;;;;19.92;8.77;;;;;;;;;;5126211;27;20103;-77
2022/01/23 04:13:56;;;;;;;18.58;8.63;;;;;;;;;;5126339;27;20063;-78
2022/01/23 04:16:44;;;;;;;22.15;10.18;;;;;;;;;;5127222;27;20418;-77
2022/01/23 05:00:36;;;;;;;15.38;8.00;;;;;;;;;;5121138;27;20574;-78
2022/01/23 05:03:52;;;;;;;14.60;7.38;;;;;;;;;;5126572;27;20096;-78
2022/01/23 05:06:11;;;;;;;17.77;7.93;;;;;;;;;;5122235;27;20050;-77
2022/01/23 05:08:38;;;;;;;14.55;7.43;;;;;;;;;;5120319;27;20035;-78
2022/01/23 05:11:08;;;;;;;16.02;8.68;;;;;;;;;;5126453;27;20079;-77
2022/01/23 05:13:35;;;;;;;16.58;7.95;;;;;;;;;;5120527;27;20055;-77
2022/01/23 05:16:02;;;;;;;15.18;7.30;;;;;;;;;;5123079;27;20047;-78
2022/01/23 05:18:32;;;;;;;14.15;7.28;;;;;;;;;;5122973;27;20044;-78
2022/01/23 05:21:09;;;;;;;17.70;8.85;;;;;;;;;;5123257;27;20551;-78
2022/01/23 05:23:36;;;;;;;23.75;12.10;;;;;;;;;;5125729;27;20403;-78
2022/01/23 05:26:03;;;;;;;20.23;8.48;;;;;;;;;;5123829;27;20075;-78
2022/01/23 05:28:29;;;;;;;20.77;8.48;;;;;;;;;;5126079;27;20565;-78
2022/01/23 05:30:56;;;;;;;17.00;8.15;;;;;;;;;;5125711;27;20131;-78
2022/01/23 05:33:22;;;;;;;13.20;7.05;;;;;;;;;;5123445;27;20071;-78
2022/01/23 05:35:50;;;;;;;16.08;7.22;;;;;;;;;;5123634;27;20454;-78
2022/01/23 05:38:17;;;;;;;15.80;8.57;;;;;;;;;;5129855;27;20073;-78
2022/01/23 05:40:44;;;;;;;16.80;7.10;;;;;;;;;;5122928;27;20078;-78
2022/01/23 05:43:11;;;;;;;15.60;8.07;;;;;;;;;;5122394;27;20039;-78
2022/01/23 05:45:41;;;;;;;17.15;7.38;;;;;;;;;;5123656;27;20134;-77
2022/01/23 05:48:08;;;;;;;18.02;8.10;;;;;;;;;;5121928;27;20047;-77
2022/01/23 05:50:34;;;;;;;18.27;7.20;;;;;;;;;;5125302;27;20043;-78
2022/01/23 05:53:02;;;;;;;20.80;8.73;;;;;;;;;;5123735;27;20074;-78
2022/01/23 05:55:29;;;;;;;16.77;8.55;;;;;;;;;;5122339;27;20076;-78
2022/01/23 05:57:55;;;;;;;15.55;8.02;;;;;;;;;;5120974;27;20494;-77
2022/01/23 06:00:43;;;;;;;15.32;7.47;;;;;;;;;;5118208;27;20063;-78
2022/01/23 06:03:09;;;;;;;14.35;6.88;;;;;;;;;;5121857;28;20067;-78
2022/01/23 06:05:36;;;;;;;16.75;7.93;;;;;;;;;;5122149;28;20131;-78
2022/01/23 06:08:05;;;;;;;18.13;8.48;;;;;;;;;;5121071;28;20074;-78
2022/01/23 06:10:46;;;;;;;16.75;8.48;;;;;;;;;;5120914;28;20106;-78
2022/01/23 06:13:13;;;;;;;16.05;9.15;;;;;;;;;;5122536;28;20414;-77
2022/01/23 06:15:39;;;;;;;18.92;8.70;;;;;;;;;;5118935;27;20711;-78
2022/01/23 06:18:06;;;;;;;15.85;7.75;;;;;;;;;;5118989;28;20131;-78
2022/01/23 06:20:32;;;;;;;16.90;8.48;;;;;;;;;;5122669;27;20083;-78
2022/01/23 06:22:59;;;;;;;17.58;9.18;;;;;;;;;;5120739;28;20526;-78
2022/01/23 06:25:32;;;;;;;17.20;8.45;;;;;;;;;;5125736;27;20086;-78
2022/01/23 06:27:59;;;;;;;14.45;7.68;;;;;;;;;;5125308;28;20082;-78
2022/01/23 06:30:26;;;;;;;15.50;9.07;;;;;;;;;;5126625;28;20102;-78
2022/01/23 06:32:52;;;;;;;15.48;8.32;;;;;;;;;;5122431;28;20084;-78
2022/01/23 06:35:19;;;;;;;18.05;8.95;;;;;;;;;;5119289;28;20079;-78
2022/01/23 06:37:45;;;;;;;20.90;9.85;;;;;;;;;;5125962;28;20599;-78
2022/01/23 06:40:13;;;;;;;19.05;9.18;;;;;;;;;;5125035;28;20070;-78
2022/01/23 06:42:41;;;;;;;16.92;8.15;;;;;;;;;;5126595;28;20134;-77
2022/01/23 06:45:08;;;;;;;17.42;8.38;;;;;;;;;;5123890;28;20492;-77
2022/01/23 06:47:34;;;;;;;15.63;7.88;;;;;;;;;;5119954;28;20119;-77
2022/01/23 06:50:01;;;;;;;15.10;7.70;;;;;;;;;;5126533;28;20126;-78
2022/01/23 06:52:28;;;;;;;16.25;8.55;;;;;;;;;;5116840;27;20067;-77
2022/01/23 06:54:54;;;;;;;22.92;9.57;;;;;;;;;;5117894;28;20047;-77
2022/01/23 06:57:21;;;;;;;24.58;11.30;;;;;;;;;;5123498;28;20538;-77
2022/01/23 06:59:48;;;;;;;23.60;9.00;;;;;;;;;;5117802;27;20078;-77
2022/01/23 07:02:15;;;;;;;18.83;8.57;;;;;;;;;;5129260;27;20139;-77
2022/01/23 07:04:42;;;;;;;15.77;7.97;;;;;;;;;;5123453;27;20126;-78
2022/01/23 07:07:08;;;;;;;16.08;8.55;;;;;;;;;;5126929;27;20126;-77
2022/01/23 07:09:35;;;;;;;15.85;7.82;;;;;;;;;;5129191;27;20145;-78
2022/01/23 07:12:01;;;;;;;17.88;8.35;;;;;;;;;;5123658;27;20082;-78
2022/01/23 07:14:28;;;;;;;16.02;7.57;;;;;;;;;;5122922;27;20139;-77
2022/01/23 07:16:56;;;;;;;17.88;8.38;;;;;;;;;;5125388;27;20770;-78
2022/01/23 07:19:22;;;;;;;16.52;8.15;;;;;;;;;;5125709;27;20070;-78
2022/01/23 07:21:49;;;;;;;16.42;8.35;;;;;;;;;;5128268;27;20067;-78
2022/01/23 07:24:15;;;;;;;18.42;8.38;;;;;;;;;;5126970;27;20134;-78
2022/01/23 07:26:42;;;;;;;22.92;9.27;;;;;;;;;;5130621;27;20058;-78
2022/01/23 07:29:08;;;;;;;21.35;10.10;;;;;;;;;;5123393;27;20043;-78
2022/01/23 07:31:59;;;;;;;18.25;9.73;;;;;;;;;;5126828;27;20058;-77
2022/01/23 07:34:28;;;;;;;20.08;10.15;;;;;;;;;;5126373;27;20057;-78
2022/01/23 07:36:54;;;;;;;22.40;10.05;;;;;;;;;;5126427;27;20067;-77
2022/01/23 07:39:26;;;;;;;22.58;10.75;;;;;;;;;;5126504;27;20076;-78
2022/01/23 07:41:52;;;;;;;20.67;10.30;;;;;;;;;;5119571;27;20127;-77
2022/01/23 07:44:19;;;;;;;26.92;9.23;;;;;;;;;;5129422;27;20142;-78
2022/01/23 07:46:46;;;;;;;29.48;10.85;;;;;;;;;;5124894;27;20126;-78
2022/01/23 07:49:12;;;;;;;18.95;9.23;;;;;;;;;;5126043;27;20068;-78
2022/01/23 07:51:40;;;;;;;18.48;8.55;;;;;;;;;;5125742;27;20119;-78
2022/01/23 07:54:07;;;;;;;21.00;10.52;;;;;;;;;;5126845;27;20561;-78
2022/01/23 07:56:33;;;;;;;21.75;9.65;;;;;;;;;;5127399;27;20043;-77
2022/01/23 07:59:00;;;;;;;20.20;9.43;;;;;;;;;;5127265;27;20073;-78
2022/01/23 08:01:26;;;;;;;18.55;8.73;;;;;;;;;;5130636;27;20551;-78
2022/01/23 08:03:53;;;;;;;23.15;10.65;;;;;;;;;;5130299;27;20071;-78
2022/01/23 08:06:21;;;;;;;23.35;9.77;;;;;;;;;;5127404;27;20121;-78
2022/01/23 08:08:49;;;;;;;20.67;9.80;;;;;;;;;;5125401;27;20044;-78
2022/01/23 08:11:15;;;;;;;23.30;10.05;;;;;;;;;;5126452;27;20147;-78
2022/01/23 08:13:42;;;;;;;26.10;11.18;;;;;;;;;;5125839;27;20067;-78
2022/01/23 08:16:10;;;;;;;23.02;10.10;;;;;;;;;;5124987;27;20512;-78
2022/01/23 08:18:36;;;;;;;19.98;9.98;;;;;;;;;;5123480;27;20047;-78
2022/01/23 08:21:09;;;;;;;23.92;11.93;;;;;;;;;;5127747;27;20117;-78
2022/01/23 08:23:38;;;;;;;20.60;10.45;;;;;;;;;;5127011;27;20085;-77
2022/01/23 08:26:06;;;;;;;24.30;12.25;;;;;;;;;;5129794;27;20081;-78
2022/01/23 08:28:32;;;;;;;32.45;15.63;;;;;;;;;;5123223;27;20064;-77
2022/01/23 08:30:59;;;;;;;23.90;12.95;;;;;;;;;;5120624;27;20131;-77
2022/01/23 08:33:27;;;;;;;27.00;12.40;;;;;;;;;;5125478;27;20067;-78
2022/01/23 08:35:56;;;;;;;24.95;11.43;;;;;;;;;;5124605;27;20047;-77
2022/01/23 08:38:23;;;;;;;19.90;9.75;;;;;;;;;;5122117;27;20406;-77
2022/01/23 08:41:49;;;;;;;18.27;10.63;;;;;;;;;;5124997;27;20075;-78
2022/01/23 08:43:38;;;;;;;27.42;14.10;;;;;;;;;;5124687;27;20039;-78
2022/01/23 08:46:05;;;;;;;23.27;12.98;;;;;;;;;;5120575;27;20074;-77
2022/01/23 08:48:32;;;;;;;26.95;14.38;;;;;;;;;;5120281;27;20138;-78
2022/01/23 08:50:59;;;;;;;30.83;12.80;;;;;;;;;;5125575;27;20367;-78
2022/01/23 08:53:26;;;;;;;22.92;12.00;;;;;;;;;;5122686;27;20138;-78
2022/01/23 08:55:52;;;;;;;22.70;12.02;;;;;;;;;;5122581;27;20466;-75
2022/01/23 08:58:19;;;;;;;25.65;13.85;;;;;;;;;;5118574;27;20052;-75
2022/01/23 09:00:47;;;;;;;25.95;12.60;;;;;;;;;;5117271;27;20094;-75
2022/01/23 09:24:46;;;;;;;54.65;13.65;;;;;;;;;;5003791;28;20123;-75
2022/01/23 09:27:18;;;;;;;23.10;11.68;;;;;;;;;;5005505;28;20097;-75
2022/01/23 09:29:48;;;;;;;22.70;12.68;;;;;;;;;;5006372;28;20050;-76
2022/01/23 09:40:52;;;;;;;26.63;13.95;;;;;;;;;;1431546;26;20062;-78
2022/01/23 09:43:20;;;;;;;25.17;11.98;;;;;;;;;;4986339;28;20549;-78
2022/01/23 09:45:48;;;;;;;23.27;10.82;;;;;;;;;;4990426;28;20570;-78
2022/01/23 09:48:17;;;;;;;22.20;11.48;;;;;;;;;;4989233;28;20117;-77
2022/01/23 09:50:46;;;;;;;22.73;11.00;;;;;;;;;;4990432;28;20069;-77
2022/01/23 09:53:13;;;;;;;26.60;13.50;;;;;;;;;;4991824;28;20097;-78
2022/01/23 09:55:41;;;;;;;23.05;13.18;;;;;;;;;;4993626;28;20085;-78
2022/01/23 09:58:09;;;;;;;26.23;12.60;;;;;;;;;;4988014;28;20073;-78
2022/01/23 10:00:36;;;;;;;25.00;13.18;;;;;;;;;;4991276;28;20550;-77
2022/01/23 10:03:02;;;;;;;23.08;11.98;;;;;;;;;;4992130;28;20495;-78
2022/01/23 10:05:30;;;;;;;25.95;12.73;;;;;;;;;;4992128;28;20137;-78
2022/01/23 10:07:57;;;;;;;24.42;13.38;;;;;;;;;;4993362;28;20047;-78
2022/01/23 10:10:27;;;;;;;24.55;14.85;;;;;;;;;;4994615;28;20078;-78
2022/01/23 10:12:56;;;;;;;26.98;15.00;;;;;;;;;;4988849;28;20046;-78
2022/01/23 10:15:25;;;;;;;23.88;13.82;;;;;;;;;;4989434;28;20093;-78
2022/01/23 10:17:52;;;;;;;29.00;13.00;;;;;;;;;;4987164;28;20047;-77
2022/01/23 10:20:19;;;;;;;25.35;14.07;;;;;;;;;;4989464;28;20069;-78
2022/01/23 10:22:49;;;;;;;25.25;13.18;;;;;;;;;;4986402;28;20058;-77
2022/01/23 10:25:18;;;;;;;24.38;12.13;;;;;;;;;;4989124;28;20081;-77
2022/01/23 10:27:57;;;;;;;27.63;12.90;;;;;;;;;;4984807;28;20109;-77
2022/01/23 10:30:29;;;;;;;24.55;13.30;;;;;;;;;;4983684;28;20054;-77
2022/01/23 10:33:11;;;;;;;25.30;13.55;;;;;;;;;;4988305;28;20093;-77
2022/01/23 10:35:54;;;;;;;25.55;13.13;;;;;;;;;;4988646;28;20148;-76
2022/01/23 10:38:21;;;;;;;23.20;12.60;;;;;;;;;;4984910;28;20560;-76
2022/01/23 10:40:52;;;;;;;25.20;13.20;;;;;;;;;;4966263;28;20069;-76
2022/01/23 10:48:47;;;;;;;28.30;13.98;;;;;;;;;;4971407;28;20625;-78
2022/01/23 10:51:20;;;;;;;25.35;12.85;;;;;;;;;;4974042;28;20074;-78
2022/01/23 10:54:07;;;;;;;26.40;13.65;;;;;;;;;;4969422;28;20046;-75
2022/01/23 10:56:39;;;;;;;25.92;12.68;;;;;;;;;;4969052;28;20507;-76
2022/01/23 10:59:07;;;;;;;27.33;13.52;;;;;;;;;;4976803;28;20058;-82
2022/01/23 11:01:36;;;;;;;24.48;13.25;;;;;;;;;;4978668;28;20078;-81
2022/01/23 11:04:12;;;;;;;28.80;13.73;;;;;;;;;;4980846;28;20081;-83
2022/01/23 11:06:53;;;;;;;24.80;12.95;;;;;;;;;;4977935;28;20043;-83
2022/01/23 11:09:21;;;;;;;25.30;13.57;;;;;;;;;;4984051;28;20038;-82
2022/01/23 11:11:51;;;;;;;24.85;13.88;;;;;;;;;;4979907;28;20460;-82
2022/01/23 11:17:25;;;;;;;26.00;12.18;;;;;;;;;;4981626;28;20546;-82
2022/01/23 11:19:57;;;;;;;24.77;12.40;;;;;;;;;;4980162;28;20487;-82
2022/01/23 11:22:26;;;;;;;26.13;12.95;;;;;;;;;;4979434;28;20125;-82
2022/01/23 11:24:55;;;;;;;24.27;12.60;;;;;;;;;;4976499;28;20499;-83
2022/01/23 11:27:23;;;;;;;26.25;12.88;;;;;;;;;;4977944;28;20132;-83
2022/01/23 11:30:01;;;;;;;24.52;12.50;;;;;;;;;;4962238;28;20117;-83
2022/01/23 11:32:36;;;;;;;20.70;11.48;;;;;;;;;;4964612;28;20078;-83
2022/01/23 11:35:08;;;;;;;27.65;12.55;;;;;;;;;;4978960;28;20133;-83
2022/01/23 11:37:37;;;;;;;24.67;11.82;;;;;;;;;;4966859;28;20070;-82
2022/01/23 11:40:20;;;;;;;22.17;13.48;;;;;;;;;;4981750;28;20043;-83
2022/01/23 11:54:05;;;;;;;28.67;13.63;;;;;;;;;;4981157;28;20047;-82
2022/01/23 11:56:41;;;;;;;34.55;14.50;;;;;;;;;;4987272;28;20073;-82
2022/01/23 11:59:25;;;;;;;25.80;12.80;;;;;;;;;;4985194;28;20515;-82
2022/01/23 12:02:22;;;;;;;27.45;14.65;;;;;;;;;;4986505;28;20058;-83
2022/01/23 12:05:29;;;;;;;24.23;11.73;;;;;;;;;;4984510;28;20053;-83
2022/01/23 12:08:24;;;;;;;24.85;12.48;;;;;;;;;;4980903;28;20050;-82
2022/01/23 12:17:08;;;;;;;22.38;10.98;;;;;;;;;;4982096;28;20078;-81
2022/01/23 12:19:43;;;;;;;23.80;12.27;;;;;;;;;;4981294;28;20317;-82
2022/01/23 12:22:36;;;;;;;20.73;11.40;;;;;;;;;;4947504;28;20072;-80
2022/01/23 12:25:21;;;;;;;25.13;11.75;;;;;;;;;;4982423;28;20077;-78
2022/01/23 12:27:48;;;;;;;22.67;11.93;;;;;;;;;;4985725;28;20074;-80
2022/01/23 12:30:36;;;;;;;21.23;11.52;;;;;;;;;;4983684;28;20104;-81
2022/01/23 12:33:23;;;;;;;21.45;11.80;;;;;;;;;;4985031;28;20038;-80
2022/01/23 12:35:52;;;;;;;22.95;12.75;;;;;;;;;;4984412;28;20058;-80
2022/01/23 12:38:28;;;;;;;24.95;12.35;;;;;;;;;;4979643;28;20047;-80
2022/01/23 12:40:55;;;;;;;22.25;11.60;;;;;;;;;;4977118;28;20775;-82
2022/01/23 12:43:25;;;;;;;24.63;12.07;;;;;;;;;;4978637;28;20055;-81
2022/01/23 12:46:01;;;;;;;20.77;11.68;;;;;;;;;;4980390;28;20113;-79
2022/01/23 12:48:43;;;;;;;24.17;11.95;;;;;;;;;;4978216;28;20047;-80
2022/01/23 12:51:31;;;;;;;22.17;11.48;;;;;;;;;;4985218;28;20054;-82
2022/01/23 12:54:27;;;;;;;25.75;11.85;;;;;;;;;;4986073;28;20674;-82
2022/01/23 12:56:55;;;;;;;24.15;12.48;;;;;;;;;;4983238;28;20105;-78
2022/01/23 12:59:33;;;;;;;19.52;11.23;;;;;;;;;;4982961;28;20108;-81
2022/01/23 13:02:05;;;;;;;19.75;11.15;;;;;;;;;;4984280;28;20113;-82
2022/01/23 13:04:34;;;;;;;20.17;11.65;;;;;;;;;;4987161;28;20070;-81
2022/01/23 13:07:15;;;;;;;17.58;9.77;;;;;;;;;;4985212;28;20050;-81
2022/01/23 13:09:51;;;;;;;17.30;9.40;;;;;;;;;;4986180;28;20101;-81
2022/01/23 13:12:33;;;;;;;19.77;10.07;;;;;;;;;;4971563;28;20049;-81
2022/01/23 13:15:16;;;;;;;20.33;10.25;;;;;;;;;;4984932;28;20507;-82
2022/01/23 13:17:53;;;;;;;18.77;10.10;;;;;;;;;;4973049;28;20129;-82
2022/01/23 13:26:34;;;;;;;17.65;9.40;;;;;;;;;;4988600;28;20053;-81
2022/01/23 13:29:54;;;;;;;17.77;9.88;;;;;;;;;;4986364;28;20051;-82
2022/01/23 13:32:18;;;;;;;16.35;9.00;;;;;;;;;;4986307;28;20075;-82
2022/01/23 13:34:50;;;;;;;16.60;9.38;;;;;;;;;;4964908;28;20062;-82
2022/01/23 13:37:18;;;;;;;23.58;10.43;;;;;;;;;;4983073;28;20133;-82
2022/01/23 13:39:49;;;;;;;19.70;10.48;;;;;;;;;;4980069;28;20054;-79
2022/01/23 13:42:45;;;;;;;15.85;9.00;;;;;;;;;;4983239;28;20144;-79
2022/01/23 13:51:21;;;;;;;18.38;10.45;;;;;;;;;;4986769;28;20410;-80
2022/01/23 13:59:26;;;;;;;23.05;13.50;;;;;;;;;;4980713;28;20039;-81
2022/01/23 14:02:06;;;;;;;19.45;11.10;;;;;;;;;;4982086;28;20043;-81
2022/01/23 14:04:38;;;;;;;20.27;11.20;;;;;;;;;;4964157;28;20610;-81
2022/01/23 14:07:05;;;;;;;17.02;10.13;;;;;;;;;;4985205;28;20074;-80
2022/01/23 14:09:44;;;;;;;19.25;9.98;;;;;;;;;;4962533;28;20043;-79
2022/01/23 14:12:13;;;;;;;19.52;10.05;;;;;;;;;;4977776;28;20714;-80
2022/01/23 14:14:55;;;;;;;19.88;10.45;;;;;;;;;;4980671;28;20502;-79
2022/01/23 14:17:28;;;;;;;20.95;10.27;;;;;;;;;;4977943;28;20061;-78
2022/01/23 14:20:04;;;;;;;18.60;10.15;;;;;;;;;;4976748;28;20375;-78
2022/01/23 14:22:34;;;;;;;17.33;9.70;;;;;;;;;;4976005;28;20134;-77
2022/01/23 14:25:09;;;;;;;19.13;11.18;;;;;;;;;;4976311;28;20055;-78
2022/01/23 14:27:36;;;;;;;17.80;10.13;;;;;;;;;;4979421;28;20130;-79
2022/01/23 14:30:07;;;;;;;19.77;10.18;;;;;;;;;;4976089;28;20075;-78
2022/01/23 14:32:42;;;;;;;18.42;11.73;;;;;;;;;;4978170;28;20042;-78
2022/01/23 14:35:11;;;;;;;20.73;11.98;;;;;;;;;;4973009;28;20125;-76
2022/01/23 14:37:38;;;;;;;19.83;11.30;;;;;;;;;;4970654;28;20050;-77
2022/01/23 14:40:10;;;;;;;17.40;10.57;;;;;;;;;;4975133;28;20237;-78
2022/01/23 14:42:36;;;;;;;19.10;11.55;;;;;;;;;;4974071;28;21012;-77
2022/01/23 14:45:06;;;;;;;17.57;10.20;;;;;;;;;;4975318;28;20121;-78
2022/01/23 14:47:37;;;;;;;18.02;10.02;;;;;;;;;;4974695;28;20062;-78
2022/01/23 14:50:07;;;;;;;22.85;11.13;;;;;;;;;;4972515;28;20117;-78
2022/01/23 14:52:34;;;;;;;24.17;13.05;;;;;;;;;;4974864;28;20055;-78
2022/01/23 14:55:02;;;;;;;19.92;11.23;;;;;;;;;;4970190;28;20078;-78
2022/01/23 14:57:31;;;;;;;40.00;18.02;;;;;;;;;;4973541;28;20470;-78
2022/01/23 14:59:59;;;;;;;35.30;17.70;;;;;;;;;;4973951;28;21081;-77
2022/01/23 15:02:27;;;;;;;23.58;11.95;;;;;;;;;;4973277;28;20081;-77
2022/01/23 15:04:54;;;;;;;19.02;9.98;;;;;;;;;;4971550;28;20157;-77
2022/01/23 15:07:20;;;;;;;17.27;9.45;;;;;;;;;;4972885;28;20142;-77
2022/01/23 15:09:49;;;;;;;18.92;10.15;;;;;;;;;;4980004;28;20133;-78
2022/01/23 15:12:16;;;;;;;19.50;11.07;;;;;;;;;;4976458;28;20074;-78
2022/01/23 15:14:42;;;;;;;22.05;11.88;;;;;;;;;;4972703;28;20175;-78
2022/01/23 15:17:09;;;;;;;21.23;11.55;;;;;;;;;;4972265;28;20133;-78
2022/01/23 15:19:37;;;;;;;20.00;10.77;;;;;;;;;;4982575;28;20129;-78
2022/01/23 15:22:04;;;;;;;19.00;10.50;;;;;;;;;;4980154;28;20038;-77
2022/01/23 15:24:30;;;;;;;19.90;10.35;;;;;;;;;;4976625;28;20162;-77
2022/01/23 15:26:57;;;;;;;18.98;9.82;;;;;;;;;;4978022;28;20046;-78
2022/01/23 15:29:23;;;;;;;19.17;10.65;;;;;;;;;;4973826;28;20129;-74
2022/01/23 15:31:50;;;;;;;19.80;10.45;;;;;;;;;;4969775;28;20150;-75
2022/01/23 15:34:16;;;;;;;40.10;19.52;;;;;;;;;;4974805;28;20081;-75
2022/01/23 15:36:45;;;;;;;37.95;20.63;;;;;;;;;;4980508;28;20137;-75
2022/01/23 15:39:11;;;;;;;32.40;16.25;;;;;;;;;;4974918;28;20074;-75
2022/01/23 15:41:38;;;;;;;28.60;14.10;;;;;;;;;;4971268;28;20082;-74
2022/01/23 15:44:05;;;;;;;24.08;13.85;;;;;;;;;;4975921;28;20134;-80
2022/01/23 15:46:32;;;;;;;21.77;12.05;;;;;;;;;;4975540;28;20078;-76
2022/01/23 15:51:47;;;;;;;20.75;11.25;;;;;;;;;;803632;23;21560;-77
2022/01/23 15:54:14;;;;;;;19.45;9.82;;;;;;;;;;4987326;28;20062;-78
2022/01/23 15:56:41;;;;;;;17.83;10.20;;;;;;;;;;4988306;28;20820;-77
2022/01/23 15:59:08;;;;;;;19.65;9.98;;;;;;;;;;4986010;28;20134;-79
2022/01/23 16:01:35;;;;;;;31.10;17.17;;;;;;;;;;4987150;28;20074;-78
2022/01/23 16:04:02;;;;;;;28.42;15.63;;;;;;;;;;4987775;28;20584;-77
2022/01/23 16:06:28;;;;;;;23.90;13.52;;;;;;;;;;4987088;28;20129;-77
2022/01/23 16:08:56;;;;;;;29.63;13.30;;;;;;;;;;4988949;28;20125;-78
2022/01/23 16:11:22;;;;;;;26.83;14.00;;;;;;;;;;4976615;28;20139;-79
2022/01/23 16:13:49;;;;;;;26.65;13.20;;;;;;;;;;4989809;28;20073;-78
2022/01/23 16:16:15;;;;;;;23.08;13.02;;;;;;;;;;4984705;28;22249;-77
2022/01/23 16:18:42;;;;;;;24.08;13.40;;;;;;;;;;4989258;28;20624;-77
2022/01/23 16:21:09;;;;;;;28.50;14.45;;;;;;;;;;4987359;28;20137;-77
2022/01/23 16:23:36;;;;;;;27.20;13.45;;;;;;;;;;4984289;28;20046;-77
2022/01/23 16:26:04;;;;;;;30.95;14.35;;;;;;;;;;4988462;28;20129;-78
2022/01/23 16:28:31;;;;;;;37.58;18.30;;;;;;;;;;4980103;28;20153;-78
2022/01/23 16:30:59;;;;;;;45.53;24.13;;;;;;;;;;4978289;28;20057;-77
2022/01/23 16:33:27;;;;;;;32.42;16.55;;;;;;;;;;4980688;28;20077;-77
2022/01/23 16:35:54;;;;;;;28.25;16.13;;;;;;;;;;4980134;28;20434;-77
2022/01/23 16:38:21;;;;;;;27.05;14.95;;;;;;;;;;4982724;28;20078;-78
2022/01/23 16:40:50;;;;;;;20.20;11.18;;;;;;;;;;4986264;28;20129;-77
2022/01/23 16:43:18;;;;;;;28.65;14.40;;;;;;;;;;4987233;28;20069;-78
2022/01/23 16:45:45;;;;;;;25.00;13.05;;;;;;;;;;4984859;28;20129;-77
2022/01/23 16:48:11;;;;;;;30.45;15.48;;;;;;;;;;4980962;28;20134;-78
2022/01/23 16:50:39;;;;;;;30.80;15.02;;;;;;;;;;4982322;28;20070;-77
2022/01/23 16:53:06;;;;;;;31.85;14.25;;;;;;;;;;4986415;28;20398;-78
2022/01/23 16:55:32;;;;;;;32.22;13.73;;;;;;;;;;4995356;28;20073;-78
2022/01/23 16:58:00;;;;;;;35.95;11.90;;;;;;;;;;4994423;28;20146;-78
2022/01/23 17:00:28;;;;;;;29.60;11.55;;;;;;;;;;4992693;28;20042;-77
2022/01/23 17:02:55;;;;;;;26.40;11.30;;;;;;;;;;4993585;28;20085;-78
2022/01/23 17:05:22;;;;;;;28.40;11.73;;;;;;;;;;4996982;28;20446;-77
2022/01/23 17:07:48;;;;;;;24.40;11.45;;;;;;;;;;4997442;28;20462;-78
2022/01/23 17:10:15;;;;;;;28.45;11.43;;;;;;;;;;4989236;28;20138;-77
2022/01/23 17:12:42;;;;;;;29.45;10.77;;;;;;;;;;4991232;28;20091;-77
2022/01/23 17:15:09;;;;;;;66.88;12.18;;;;;;;;;;4993312;28;20056;-78
2022/01/23 17:17:37;;;;;;;27.60;11.88;;;;;;;;;;4992502;28;20074;-77
2022/01/23 17:20:04;;;;;;;31.35;14.65;;;;;;;;;;4995612;28;20138;-78
2022/01/23 17:22:30;;;;;;;30.63;15.23;;;;;;;;;;4996782;28;20078;-77
2022/01/23 17:24:57;;;;;;;20.35;10.48;;;;;;;;;;4998183;28;20130;-76
2022/01/23 17:27:24;;;;;;;32.20;11.85;;;;;;;;;;4994857;28;20073;-78
2022/01/23 17:29:51;;;;;;;21.27;11.05;;;;;;;;;;4997853;28;20073;-77
2022/01/23 17:32:21;;;;;;;21.23;11.40;;;;;;;;;;4993967;28;20070;-79
2022/01/23 17:34:49;;;;;;;23.80;10.25;;;;;;;;;;4993591;28;20061;-78
2022/01/23 17:37:15;;;;;;;22.63;10.73;;;;;;;;;;4995810;28;20144;-78
2022/01/23 17:39:42;;;;;;;19.80;9.30;;;;;;;;;;4994733;28;20560;-78
2022/01/23 17:42:10;;;;;;;18.60;9.18;;;;;;;;;;4994732;28;20054;-77
2022/01/23 17:44:39;;;;;;;17.60;8.23;;;;;;;;;;4992932;28;20049;-79
2022/01/23 17:47:18;;;;;;;19.95;9.77;;;;;;;;;;4989818;28;20394;-78
2022/01/23 17:49:53;;;;;;;37.58;13.73;;;;;;;;;;4991554;28;20418;-78
2022/01/23 17:52:22;;;;;;;22.05;11.30;;;;;;;;;;4996513;28;20050;-78
2022/01/23 17:54:49;;;;;;;19.15;9.45;;;;;;;;;;4994712;28;20043;-78
2022/01/23 17:57:15;;;;;;;24.15;8.50;;;;;;;;;;4989500;28;20128;-79
2022/01/23 17:59:42;;;;;;;17.85;8.40;;;;;;;;;;4992120;28;20077;-77